sensor_id;sensor_type;location;lat;lon;timestamp;P1;durP1;ratioP1;P2;durP2;ratioP2
45522;SDS011;31254;51.680;5.394;2022-07-31T00:00:43;7.93;;;4.82;;
45522;SDS011;31254;51.680;5.394;2022-07-31T00:03:10;7.25;;;4.95;;
45522;SDS011;31254;51.680;5.394;2022-07-31T00:05:38;10.23;;;5.70;;
45522;SDS011;31254;51.680;5.394;2022-07-31T00:08:07;10.60;;;5.88;;
45522;SDS011;31254;51.680;5.394;2022-07-31T00:10:34;10.15;;;5.63;;
45522;SDS011;31254;51.680;5.394;2022-07-31T00:13:01;9.85;;;5.57;;
45522;SDS011;31254;51.680;5.394;2022-07-31T00:15:27;11.30;;;5.75;;
45522;SDS011;31254;51.680;5.394;2022-07-31T00:17:54;13.40;;;6.20;;
45522;SDS011;31254;51.680;5.394;2022-07-31T00:20:20;9.05;;;6.32;;
45522;SDS011;31254;51.680;5.394;2022-07-31T00:22:50;9.82;;;6.13;;
45522;SDS011;31254;51.680;5.394;2022-07-31T00:25:16;11.23;;;6.72;;
45522;SDS011;31254;51.680;5.394;2022-07-31T00:27:44;10.68;;;7.45;;
45522;SDS011;31254;51.680;5.394;2022-07-31T00:30:11;9.93;;;5.68;;
45522;SDS011;31254;51.680;5.394;2022-07-31T00:32:39;9.80;;;6.15;;
45522;SDS011;31254;51.680;5.394;2022-07-31T00:35:09;10.77;;;6.03;;
45522;SDS011;31254;51.680;5.394;2022-07-31T00:37:37;9.00;;;4.90;;
45522;SDS011;31254;51.680;5.394;2022-07-31T00:40:08;6.97;;;4.40;;
45522;SDS011;31254;51.680;5.394;2022-07-31T00:42:36;10.93;;;4.88;;
45522;SDS011;31254;51.680;5.394;2022-07-31T00:45:03;10.35;;;4.78;;
45522;SDS011;31254;51.680;5.394;2022-07-31T00:47:31;9.90;;;4.95;;
45522;SDS011;31254;51.680;5.394;2022-07-31T00:49:57;7.85;;;5.57;;
45522;SDS011;31254;51.680;5.394;2022-07-31T00:52:24;11.55;;;4.80;;
45522;SDS011;31254;51.680;5.394;2022-07-31T00:54:50;7.25;;;5.22;;
45522;SDS011;31254;51.680;5.394;2022-07-31T00:57:17;10.35;;;4.82;;
45522;SDS011;31254;51.680;5.394;2022-07-31T00:59:44;8.95;;;5.32;;
45522;SDS011;31254;51.680;5.394;2022-07-31T01:02:13;11.18;;;5.40;;
45522;SDS011;31254;51.680;5.394;2022-07-31T01:04:42;9.55;;;4.80;;
45522;SDS011;31254;51.680;5.394;2022-07-31T01:07:11;10.52;;;4.60;;
45522;SDS011;31254;51.680;5.394;2022-07-31T01:09:37;8.05;;;4.10;;
45522;SDS011;31254;51.680;5.394;2022-07-31T01:14:56;10.20;;;4.50;;
45522;SDS011;31254;51.680;5.394;2022-07-31T01:17:25;8.15;;;4.30;;
45522;SDS011;31254;51.680;5.394;2022-07-31T01:19:55;5.72;;;3.53;;
45522;SDS011;31254;51.680;5.394;2022-07-31T01:25:09;6.05;;;3.80;;
45522;SDS011;31254;51.680;5.394;2022-07-31T01:30:59;9.98;;;4.85;;
45522;SDS011;31254;51.680;5.394;2022-07-31T01:33:52;8.63;;;4.53;;
45522;SDS011;31254;51.680;5.394;2022-07-31T01:36:34;7.03;;;4.68;;
45522;SDS011;31254;51.680;5.394;2022-07-31T01:39:07;9.68;;;5.38;;
45522;SDS011;31254;51.680;5.394;2022-07-31T01:41:37;11.60;;;5.85;;
45522;SDS011;31254;51.680;5.394;2022-07-31T01:44:08;11.25;;;5.20;;
45522;SDS011;31254;51.680;5.394;2022-07-31T01:46:42;12.07;;;5.30;;
45522;SDS011;31254;51.680;5.394;2022-07-31T01:49:10;8.27;;;5.43;;
45522;SDS011;31254;51.680;5.394;2022-07-31T01:51:38;9.65;;;4.80;;
45522;SDS011;31254;51.680;5.394;2022-07-31T01:54:08;7.82;;;4.47;;
45522;SDS011;31254;51.680;5.394;2022-07-31T01:56:36;7.18;;;4.00;;
45522;SDS011;31254;51.680;5.394;2022-07-31T01:59:05;8.05;;;4.13;;
45522;SDS011;31254;51.680;5.394;2022-07-31T02:01:45;7.10;;;3.95;;
45522;SDS011;31254;51.680;5.394;2022-07-31T02:04:16;9.95;;;4.22;;
45522;SDS011;31254;51.680;5.394;2022-07-31T02:06:45;6.88;;;4.00;;
45522;SDS011;31254;51.680;5.394;2022-07-31T02:09:14;8.25;;;4.15;;
45522;SDS011;31254;51.680;5.394;2022-07-31T02:11:43;6.18;;;4.15;;
45522;SDS011;31254;51.680;5.394;2022-07-31T02:14:20;9.20;;;4.47;;
45522;SDS011;31254;51.680;5.394;2022-07-31T02:16:48;8.23;;;4.22;;
45522;SDS011;31254;51.680;5.394;2022-07-31T02:19:15;9.60;;;4.13;;
45522;SDS011;31254;51.680;5.394;2022-07-31T02:21:42;7.47;;;4.45;;
45522;SDS011;31254;51.680;5.394;2022-07-31T02:24:09;12.25;;;4.43;;
45522;SDS011;31254;51.680;5.394;2022-07-31T02:26:38;7.15;;;4.00;;
45522;SDS011;31254;51.680;5.394;2022-07-31T02:29:08;9.95;;;4.22;;
45522;SDS011;31254;51.680;5.394;2022-07-31T02:31:46;10.25;;;4.22;;
45522;SDS011;31254;51.680;5.394;2022-07-31T02:34:28;7.80;;;3.90;;
45522;SDS011;31254;51.680;5.394;2022-07-31T02:36:56;8.43;;;3.83;;
45522;SDS011;31254;51.680;5.394;2022-07-31T02:39:25;10.82;;;4.22;;
45522;SDS011;31254;51.680;5.394;2022-07-31T02:41:55;17.55;;;3.90;;
45522;SDS011;31254;51.680;5.394;2022-07-31T02:44:27;7.50;;;4.10;;
45522;SDS011;31254;51.680;5.394;2022-07-31T02:46:57;10.38;;;4.15;;
45522;SDS011;31254;51.680;5.394;2022-07-31T02:49:28;6.85;;;4.00;;
45522;SDS011;31254;51.680;5.394;2022-07-31T02:51:55;9.02;;;4.63;;
45522;SDS011;31254;51.680;5.394;2022-07-31T02:54:24;9.57;;;4.50;;
45522;SDS011;31254;51.680;5.394;2022-07-31T02:56:51;8.73;;;5.53;;
45522;SDS011;31254;51.680;5.394;2022-07-31T02:59:21;16.90;;;5.78;;
45522;SDS011;31254;51.680;5.394;2022-07-31T03:01:47;13.18;;;4.75;;
45522;SDS011;31254;51.680;5.394;2022-07-31T03:04:16;8.27;;;4.97;;
45522;SDS011;31254;51.680;5.394;2022-07-31T03:06:43;8.90;;;4.82;;
45522;SDS011;31254;51.680;5.394;2022-07-31T03:09:14;9.18;;;4.78;;
45522;SDS011;31254;51.680;5.394;2022-07-31T03:11:41;7.95;;;5.07;;
45522;SDS011;31254;51.680;5.394;2022-07-31T03:14:10;7.40;;;4.63;;
45522;SDS011;31254;51.680;5.394;2022-07-31T03:16:40;11.85;;;5.30;;
45522;SDS011;31254;51.680;5.394;2022-07-31T03:19:08;9.70;;;5.20;;
45522;SDS011;31254;51.680;5.394;2022-07-31T03:21:35;8.50;;;5.57;;
45522;SDS011;31254;51.680;5.394;2022-07-31T03:24:05;13.15;;;5.30;;
45522;SDS011;31254;51.680;5.394;2022-07-31T03:26:32;8.23;;;4.95;;
45522;SDS011;31254;51.680;5.394;2022-07-31T03:29:01;11.25;;;5.85;;
45522;SDS011;31254;51.680;5.394;2022-07-31T03:31:28;13.27;;;5.30;;
45522;SDS011;31254;51.680;5.394;2022-07-31T03:33:55;11.18;;;5.60;;
45522;SDS011;31254;51.680;5.394;2022-07-31T03:36:22;8.52;;;4.93;;
45522;SDS011;31254;51.680;5.394;2022-07-31T03:38:51;9.70;;;5.00;;
45522;SDS011;31254;51.680;5.394;2022-07-31T03:41:20;11.40;;;5.45;;
45522;SDS011;31254;51.680;5.394;2022-07-31T03:43:50;8.75;;;5.18;;
45522;SDS011;31254;51.680;5.394;2022-07-31T03:46:18;10.93;;;5.28;;
45522;SDS011;31254;51.680;5.394;2022-07-31T03:48:46;11.23;;;5.45;;
45522;SDS011;31254;51.680;5.394;2022-07-31T03:51:13;10.18;;;6.28;;
45522;SDS011;31254;51.680;5.394;2022-07-31T03:53:41;13.68;;;6.18;;
45522;SDS011;31254;51.680;5.394;2022-07-31T03:56:09;12.88;;;5.70;;
45522;SDS011;31254;51.680;5.394;2022-07-31T03:58:36;8.73;;;5.70;;
45522;SDS011;31254;51.680;5.394;2022-07-31T04:01:05;10.32;;;5.78;;
45522;SDS011;31254;51.680;5.394;2022-07-31T04:03:37;9.65;;;6.05;;
45522;SDS011;31254;51.680;5.394;2022-07-31T04:06:06;9.02;;;5.95;;
45522;SDS011;31254;51.680;5.394;2022-07-31T04:08:33;10.27;;;6.70;;
45522;SDS011;31254;51.680;5.394;2022-07-31T04:11:00;12.25;;;6.57;;
45522;SDS011;31254;51.680;5.394;2022-07-31T04:13:26;11.52;;;6.00;;
45522;SDS011;31254;51.680;5.394;2022-07-31T04:15:55;7.95;;;5.88;;
45522;SDS011;31254;51.680;5.394;2022-07-31T04:18:22;9.70;;;6.05;;
45522;SDS011;31254;51.680;5.394;2022-07-31T04:20:48;13.68;;;6.32;;
45522;SDS011;31254;51.680;5.394;2022-07-31T04:23:15;12.48;;;8.00;;
45522;SDS011;31254;51.680;5.394;2022-07-31T04:25:42;10.32;;;7.40;;
45522;SDS011;31254;51.680;5.394;2022-07-31T04:28:08;11.25;;;6.70;;
45522;SDS011;31254;51.680;5.394;2022-07-31T04:30:35;12.70;;;7.72;;
45522;SDS011;31254;51.680;5.394;2022-07-31T04:33:02;13.80;;;7.50;;
45522;SDS011;31254;51.680;5.394;2022-07-31T04:35:29;12.80;;;7.20;;
45522;SDS011;31254;51.680;5.394;2022-07-31T04:37:56;13.27;;;7.53;;
45522;SDS011;31254;51.680;5.394;2022-07-31T04:40:22;13.15;;;8.15;;
45522;SDS011;31254;51.680;5.394;2022-07-31T04:42:51;12.63;;;8.38;;
45522;SDS011;31254;51.680;5.394;2022-07-31T04:45:19;15.70;;;9.95;;
45522;SDS011;31254;51.680;5.394;2022-07-31T04:47:46;17.80;;;9.80;;
45522;SDS011;31254;51.680;5.394;2022-07-31T04:50:12;17.52;;;10.48;;
45522;SDS011;31254;51.680;5.394;2022-07-31T04:52:39;13.48;;;10.07;;
45522;SDS011;31254;51.680;5.394;2022-07-31T04:55:08;13.93;;;9.82;;
45522;SDS011;31254;51.680;5.394;2022-07-31T04:57:35;13.05;;;10.13;;
45522;SDS011;31254;51.680;5.394;2022-07-31T05:00:03;15.25;;;10.55;;
45522;SDS011;31254;51.680;5.394;2022-07-31T05:02:31;17.05;;;9.82;;
45522;SDS011;31254;51.680;5.394;2022-07-31T05:04:58;16.45;;;10.63;;
45522;SDS011;31254;51.680;5.394;2022-07-31T05:07:24;13.45;;;9.85;;
45522;SDS011;31254;51.680;5.394;2022-07-31T05:09:54;18.00;;;10.95;;
45522;SDS011;31254;51.680;5.394;2022-07-31T05:12:24;18.33;;;9.70;;
45522;SDS011;31254;51.680;5.394;2022-07-31T05:14:51;12.65;;;9.55;;
45522;SDS011;31254;51.680;5.394;2022-07-31T05:17:21;15.00;;;10.48;;
45522;SDS011;31254;51.680;5.394;2022-07-31T05:19:47;18.17;;;9.82;;
45522;SDS011;31254;51.680;5.394;2022-07-31T05:22:17;15.88;;;9.10;;
45522;SDS011;31254;51.680;5.394;2022-07-31T05:24:44;15.95;;;9.70;;
45522;SDS011;31254;51.680;5.394;2022-07-31T05:27:10;14.57;;;10.10;;
45522;SDS011;31254;51.680;5.394;2022-07-31T05:29:37;14.13;;;9.13;;
45522;SDS011;31254;51.680;5.394;2022-07-31T05:32:04;12.25;;;8.85;;
45522;SDS011;31254;51.680;5.394;2022-07-31T05:34:30;13.02;;;9.05;;
45522;SDS011;31254;51.680;5.394;2022-07-31T05:36:58;13.63;;;8.35;;
45522;SDS011;31254;51.680;5.394;2022-07-31T05:39:29;13.25;;;8.93;;
45522;SDS011;31254;51.680;5.394;2022-07-31T05:41:56;11.90;;;8.25;;
45522;SDS011;31254;51.680;5.394;2022-07-31T05:44:22;10.77;;;7.80;;
45522;SDS011;31254;51.680;5.394;2022-07-31T05:46:50;16.23;;;8.57;;
45522;SDS011;31254;51.680;5.394;2022-07-31T05:49:15;13.50;;;8.35;;
45522;SDS011;31254;51.680;5.394;2022-07-31T05:51:45;10.13;;;7.32;;
45522;SDS011;31254;51.680;5.394;2022-07-31T05:54:12;11.70;;;7.47;;
45522;SDS011;31254;51.680;5.394;2022-07-31T05:56:39;9.30;;;6.70;;
45522;SDS011;31254;51.680;5.394;2022-07-31T05:59:05;10.27;;;6.32;;
45522;SDS011;31254;51.680;5.394;2022-07-31T06:01:32;8.27;;;6.13;;
45522;SDS011;31254;51.680;5.394;2022-07-31T06:03:59;9.93;;;5.93;;
45522;SDS011;31254;51.680;5.394;2022-07-31T06:06:25;11.55;;;5.93;;
45522;SDS011;31254;51.680;5.394;2022-07-31T06:08:52;9.38;;;6.15;;
45522;SDS011;31254;51.680;5.394;2022-07-31T06:11:19;11.90;;;5.45;;
45522;SDS011;31254;51.680;5.394;2022-07-31T06:13:45;7.43;;;5.28;;
45522;SDS011;31254;51.680;5.394;2022-07-31T06:16:14;8.55;;;5.22;;
45522;SDS011;31254;51.680;5.394;2022-07-31T06:18:41;9.40;;;5.13;;
45522;SDS011;31254;51.680;5.394;2022-07-31T06:21:08;8.73;;;5.05;;
45522;SDS011;31254;51.680;5.394;2022-07-31T06:23:35;8.73;;;4.85;;
45522;SDS011;31254;51.680;5.394;2022-07-31T06:26:04;9.40;;;4.95;;
45522;SDS011;31254;51.680;5.394;2022-07-31T06:28:31;8.02;;;4.35;;
45522;SDS011;31254;51.680;5.394;2022-07-31T06:31:17;6.82;;;4.78;;
45522;SDS011;31254;51.680;5.394;2022-07-31T06:33:48;7.38;;;4.82;;
45522;SDS011;31254;51.680;5.394;2022-07-31T06:36:18;7.80;;;4.70;;
45522;SDS011;31254;51.680;5.394;2022-07-31T06:38:44;6.45;;;4.45;;
45522;SDS011;31254;51.680;5.394;2022-07-31T06:41:11;10.23;;;4.28;;
45522;SDS011;31254;51.680;5.394;2022-07-31T06:43:58;7.20;;;4.97;;
45522;SDS011;31254;51.680;5.394;2022-07-31T06:46:24;9.95;;;4.53;;
45522;SDS011;31254;51.680;5.394;2022-07-31T06:48:53;9.20;;;4.80;;
45522;SDS011;31254;51.680;5.394;2022-07-31T06:51:20;8.60;;;4.57;;
45522;SDS011;31254;51.680;5.394;2022-07-31T06:54:03;11.02;;;4.68;;
45522;SDS011;31254;51.680;5.394;2022-07-31T06:56:31;7.63;;;4.00;;
45522;SDS011;31254;51.680;5.394;2022-07-31T06:58:58;10.23;;;4.68;;
45522;SDS011;31254;51.680;5.394;2022-07-31T07:01:28;7.30;;;4.57;;
45522;SDS011;31254;51.680;5.394;2022-07-31T07:03:57;8.43;;;4.85;;
45522;SDS011;31254;51.680;5.394;2022-07-31T07:06:27;9.98;;;5.57;;
45522;SDS011;31254;51.680;5.394;2022-07-31T07:08:54;11.38;;;5.82;;
45522;SDS011;31254;51.680;5.394;2022-07-31T07:11:21;9.63;;;4.97;;
45522;SDS011;31254;51.680;5.394;2022-07-31T07:13:50;9.57;;;5.90;;
45522;SDS011;31254;51.680;5.394;2022-07-31T07:16:17;13.75;;;5.93;;
45522;SDS011;31254;51.680;5.394;2022-07-31T07:18:43;8.13;;;5.40;;
45522;SDS011;31254;51.680;5.394;2022-07-31T07:21:12;10.73;;;5.72;;
45522;SDS011;31254;51.680;5.394;2022-07-31T07:23:39;9.70;;;6.05;;
45522;SDS011;31254;51.680;5.394;2022-07-31T07:26:06;10.13;;;5.70;;
45522;SDS011;31254;51.680;5.394;2022-07-31T07:28:33;11.15;;;6.50;;
45522;SDS011;31254;51.680;5.394;2022-07-31T07:31:00;14.40;;;6.40;;
45522;SDS011;31254;51.680;5.394;2022-07-31T07:33:30;12.68;;;6.97;;
45522;SDS011;31254;51.680;5.394;2022-07-31T07:36:07;11.98;;;7.13;;
45522;SDS011;31254;51.680;5.394;2022-07-31T07:38:47;13.93;;;7.32;;
45522;SDS011;31254;51.680;5.394;2022-07-31T07:41:14;18.58;;;7.78;;
45522;SDS011;31254;51.680;5.394;2022-07-31T07:43:43;13.05;;;7.45;;
45522;SDS011;31254;51.680;5.394;2022-07-31T07:46:17;14.23;;;7.93;;
45522;SDS011;31254;51.680;5.394;2022-07-31T07:48:43;15.73;;;8.77;;
45522;SDS011;31254;51.680;5.394;2022-07-31T07:51:12;19.30;;;9.40;;
45522;SDS011;31254;51.680;5.394;2022-07-31T07:53:39;15.75;;;9.35;;
45522;SDS011;31254;51.680;5.394;2022-07-31T07:56:05;15.85;;;9.05;;
45522;SDS011;31254;51.680;5.394;2022-07-31T07:58:32;14.15;;;8.40;;
45522;SDS011;31254;51.680;5.394;2022-07-31T08:00:59;16.95;;;9.00;;
45522;SDS011;31254;51.680;5.394;2022-07-31T08:03:26;13.77;;;8.65;;
45522;SDS011;31254;51.680;5.394;2022-07-31T08:06:13;14.90;;;8.38;;
45522;SDS011;31254;51.680;5.394;2022-07-31T08:08:40;14.45;;;9.10;;
45522;SDS011;31254;51.680;5.394;2022-07-31T08:11:08;12.60;;;7.95;;
45522;SDS011;31254;51.680;5.394;2022-07-31T08:13:42;13.65;;;7.53;;
45522;SDS011;31254;51.680;5.394;2022-07-31T08:16:16;12.90;;;7.90;;
45522;SDS011;31254;51.680;5.394;2022-07-31T08:18:46;15.10;;;8.48;;
45522;SDS011;31254;51.680;5.394;2022-07-31T08:21:16;17.35;;;8.85;;
45522;SDS011;31254;51.680;5.394;2022-07-31T08:23:43;13.90;;;8.85;;
45522;SDS011;31254;51.680;5.394;2022-07-31T08:26:10;17.77;;;9.05;;
45522;SDS011;31254;51.680;5.394;2022-07-31T08:28:38;14.63;;;9.07;;
45522;SDS011;31254;51.680;5.394;2022-07-31T08:31:06;16.90;;;9.75;;
45522;SDS011;31254;51.680;5.394;2022-07-31T08:33:33;15.07;;;9.60;;
45522;SDS011;31254;51.680;5.394;2022-07-31T08:35:59;16.50;;;10.50;;
45522;SDS011;31254;51.680;5.394;2022-07-31T08:38:37;16.02;;;10.98;;
45522;SDS011;31254;51.680;5.394;2022-07-31T08:41:04;15.05;;;10.02;;
45522;SDS011;31254;51.680;5.394;2022-07-31T08:43:31;14.48;;;10.48;;
45522;SDS011;31254;51.680;5.394;2022-07-31T08:46:20;16.70;;;11.15;;
45522;SDS011;31254;51.680;5.394;2022-07-31T08:48:48;15.75;;;10.13;;
45522;SDS011;31254;51.680;5.394;2022-07-31T08:51:20;14.25;;;10.57;;
45522;SDS011;31254;51.680;5.394;2022-07-31T08:53:49;16.95;;;11.50;;
45522;SDS011;31254;51.680;5.394;2022-07-31T08:56:16;14.80;;;11.20;;
45522;SDS011;31254;51.680;5.394;2022-07-31T08:58:47;16.55;;;11.90;;
45522;SDS011;31254;51.680;5.394;2022-07-31T09:01:13;16.10;;;11.85;;
45522;SDS011;31254;51.680;5.394;2022-07-31T09:03:40;19.90;;;12.43;;
45522;SDS011;31254;51.680;5.394;2022-07-31T09:06:07;20.98;;;13.18;;
45522;SDS011;31254;51.680;5.394;2022-07-31T09:08:35;21.67;;;13.00;;
45522;SDS011;31254;51.680;5.394;2022-07-31T09:11:06;20.42;;;13.45;;
45522;SDS011;31254;51.680;5.394;2022-07-31T09:13:34;21.23;;;13.80;;
45522;SDS011;31254;51.680;5.394;2022-07-31T09:16:02;19.48;;;14.32;;
45522;SDS011;31254;51.680;5.394;2022-07-31T09:18:31;18.75;;;13.80;;
45522;SDS011;31254;51.680;5.394;2022-07-31T09:21:02;16.73;;;13.20;;
45522;SDS011;31254;51.680;5.394;2022-07-31T09:23:33;18.05;;;13.50;;
45522;SDS011;31254;51.680;5.394;2022-07-31T09:26:10;18.77;;;13.10;;
45522;SDS011;31254;51.680;5.394;2022-07-31T09:28:38;16.35;;;12.93;;
45522;SDS011;31254;51.680;5.394;2022-07-31T09:31:11;16.90;;;12.27;;
45522;SDS011;31254;51.680;5.394;2022-07-31T09:33:43;17.33;;;13.25;;
45522;SDS011;31254;51.680;5.394;2022-07-31T09:36:11;19.50;;;13.35;;
45522;SDS011;31254;51.680;5.394;2022-07-31T09:38:42;17.33;;;13.18;;
45522;SDS011;31254;51.680;5.394;2022-07-31T09:41:16;20.38;;;12.38;;
45522;SDS011;31254;51.680;5.394;2022-07-31T09:44:07;14.68;;;11.48;;
45522;SDS011;31254;51.680;5.394;2022-07-31T09:46:42;14.18;;;11.73;;
45522;SDS011;31254;51.680;5.394;2022-07-31T09:49:11;15.35;;;11.10;;
45522;SDS011;31254;51.680;5.394;2022-07-31T09:51:39;12.43;;;10.65;;
45522;SDS011;31254;51.680;5.394;2022-07-31T09:54:22;15.10;;;10.75;;
45522;SDS011;31254;51.680;5.394;2022-07-31T09:56:50;14.95;;;10.52;;
45522;SDS011;31254;51.680;5.394;2022-07-31T09:59:19;13.35;;;10.20;;
45522;SDS011;31254;51.680;5.394;2022-07-31T10:01:48;13.20;;;10.27;;
45522;SDS011;31254;51.680;5.394;2022-07-31T10:04:16;11.70;;;9.00;;
45522;SDS011;31254;51.680;5.394;2022-07-31T10:06:47;16.23;;;8.85;;
45522;SDS011;31254;51.680;5.394;2022-07-31T10:09:17;12.43;;;8.60;;
45522;SDS011;31254;51.680;5.394;2022-07-31T10:11:45;10.75;;;7.82;;
45522;SDS011;31254;51.680;5.394;2022-07-31T10:14:23;11.80;;;8.00;;
45522;SDS011;31254;51.680;5.394;2022-07-31T10:16:57;9.52;;;7.15;;
45522;SDS011;31254;51.680;5.394;2022-07-31T10:19:29;9.50;;;7.63;;
45522;SDS011;31254;51.680;5.394;2022-07-31T10:22:03;8.77;;;7.00;;
45522;SDS011;31254;51.680;5.394;2022-07-31T10:24:34;11.20;;;6.88;;
45522;SDS011;31254;51.680;5.394;2022-07-31T10:27:08;12.65;;;6.85;;
45522;SDS011;31254;51.680;5.394;2022-07-31T10:29:41;6.90;;;5.90;;
45522;SDS011;31254;51.680;5.394;2022-07-31T10:32:08;7.78;;;6.40;;
45522;SDS011;31254;51.680;5.394;2022-07-31T10:34:35;6.90;;;5.93;;
45522;SDS011;31254;51.680;5.394;2022-07-31T10:37:04;9.77;;;6.03;;
45522;SDS011;31254;51.680;5.394;2022-07-31T10:39:48;7.28;;;5.47;;
45522;SDS011;31254;51.680;5.394;2022-07-31T10:45:11;7.32;;;5.50;;
45522;SDS011;31254;51.680;5.394;2022-07-31T10:47:55;6.70;;;4.65;;
45522;SDS011;31254;51.680;5.394;2022-07-31T10:50:25;7.78;;;5.22;;
45522;SDS011;31254;51.680;5.394;2022-07-31T10:53:06;5.82;;;5.07;;
45522;SDS011;31254;51.680;5.394;2022-07-31T10:55:34;7.68;;;4.53;;
45522;SDS011;31254;51.680;5.394;2022-07-31T10:58:11;8.85;;;4.43;;
45522;SDS011;31254;51.680;5.394;2022-07-31T11:00:41;6.80;;;3.97;;
45522;SDS011;31254;51.680;5.394;2022-07-31T11:03:12;6.57;;;4.07;;
45522;SDS011;31254;51.680;5.394;2022-07-31T11:05:51;8.73;;;3.92;;
45522;SDS011;31254;51.680;5.394;2022-07-31T11:08:39;6.45;;;3.67;;
45522;SDS011;31254;51.680;5.394;2022-07-31T11:11:13;5.80;;;3.22;;
45522;SDS011;31254;51.680;5.394;2022-07-31T11:13:58;6.65;;;3.95;;
45522;SDS011;31254;51.680;5.394;2022-07-31T11:16:30;8.52;;;3.60;;
45522;SDS011;31254;51.680;5.394;2022-07-31T11:19:03;5.68;;;3.97;;
45522;SDS011;31254;51.680;5.394;2022-07-31T11:21:33;10.05;;;4.03;;
45522;SDS011;31254;51.680;5.394;2022-07-31T11:24:15;10.95;;;4.13;;
45522;SDS011;31254;51.680;5.394;2022-07-31T11:26:47;10.57;;;4.93;;
45522;SDS011;31254;51.680;5.394;2022-07-31T11:29:38;7.55;;;4.88;;
45522;SDS011;31254;51.680;5.394;2022-07-31T11:32:25;6.82;;;4.60;;
45522;SDS011;31254;51.680;5.394;2022-07-31T11:34:52;5.35;;;3.90;;
45522;SDS011;31254;51.680;5.394;2022-07-31T11:37:23;9.55;;;3.92;;
45522;SDS011;31254;51.680;5.394;2022-07-31T11:40:12;5.63;;;4.13;;
45522;SDS011;31254;51.680;5.394;2022-07-31T11:42:41;10.80;;;4.32;;
45522;SDS011;31254;51.680;5.394;2022-07-31T11:45:09;8.52;;;3.92;;
45522;SDS011;31254;51.680;5.394;2022-07-31T11:47:38;4.85;;;3.47;;
45522;SDS011;31254;51.680;5.394;2022-07-31T11:50:25;8.50;;;3.90;;
45522;SDS011;31254;51.680;5.394;2022-07-31T11:53:02;6.35;;;4.05;;
45522;SDS011;31254;51.680;5.394;2022-07-31T11:55:42;7.95;;;4.30;;
45522;SDS011;31254;51.680;5.394;2022-07-31T11:58:18;6.88;;;4.15;;
45522;SDS011;31254;51.680;5.394;2022-07-31T12:01:02;6.20;;;4.57;;
45522;SDS011;31254;51.680;5.394;2022-07-31T12:03:31;13.52;;;4.70;;
45522;SDS011;31254;51.680;5.394;2022-07-31T12:06:00;7.28;;;4.28;;
45522;SDS011;31254;51.680;5.394;2022-07-31T12:08:27;7.55;;;4.63;;
45522;SDS011;31254;51.680;5.394;2022-07-31T12:10:56;6.63;;;5.03;;
45522;SDS011;31254;51.680;5.394;2022-07-31T12:13:25;6.25;;;4.72;;
45522;SDS011;31254;51.680;5.394;2022-07-31T12:16:08;6.20;;;5.13;;
45522;SDS011;31254;51.680;5.394;2022-07-31T12:21:14;6.70;;;4.85;;
45522;SDS011;31254;51.680;5.394;2022-07-31T12:23:41;7.47;;;4.60;;
45522;SDS011;31254;51.680;5.394;2022-07-31T12:26:22;8.13;;;4.97;;
45522;SDS011;31254;51.680;5.394;2022-07-31T12:31:23;7.07;;;4.72;;
45522;SDS011;31254;51.680;5.394;2022-07-31T12:33:50;6.68;;;5.10;;
45522;SDS011;31254;51.680;5.394;2022-07-31T12:36:17;6.28;;;4.95;;
45522;SDS011;31254;51.680;5.394;2022-07-31T12:38:44;8.32;;;4.90;;
45522;SDS011;31254;51.680;5.394;2022-07-31T12:41:23;6.22;;;4.90;;
45522;SDS011;31254;51.680;5.394;2022-07-31T12:43:52;7.13;;;5.20;;
45522;SDS011;31254;51.680;5.394;2022-07-31T12:46:28;8.70;;;5.07;;
45522;SDS011;31254;51.680;5.394;2022-07-31T12:49:03;6.63;;;5.10;;
45522;SDS011;31254;51.680;5.394;2022-07-31T12:51:33;7.85;;;4.75;;
45522;SDS011;31254;51.680;5.394;2022-07-31T12:54:14;10.52;;;4.60;;
45522;SDS011;31254;51.680;5.394;2022-07-31T12:56:43;7.60;;;4.45;;
45522;SDS011;31254;51.680;5.394;2022-07-31T12:59:11;7.28;;;4.25;;
45522;SDS011;31254;51.680;5.394;2022-07-31T13:01:38;6.47;;;4.40;;
45522;SDS011;31254;51.680;5.394;2022-07-31T13:04:07;9.13;;;5.03;;
45522;SDS011;31254;51.680;5.394;2022-07-31T13:06:44;8.98;;;5.28;;
45522;SDS011;31254;51.680;5.394;2022-07-31T13:09:14;9.70;;;5.55;;
45522;SDS011;31254;51.680;5.394;2022-07-31T13:11:40;6.50;;;4.57;;
45522;SDS011;31254;51.680;5.394;2022-07-31T13:14:14;7.80;;;4.65;;
45522;SDS011;31254;51.680;5.394;2022-07-31T13:16:49;8.82;;;4.40;;
45522;SDS011;31254;51.680;5.394;2022-07-31T13:19:17;9.55;;;4.28;;
45522;SDS011;31254;51.680;5.394;2022-07-31T13:21:45;10.32;;;4.60;;
45522;SDS011;31254;51.680;5.394;2022-07-31T13:24:15;10.88;;;4.35;;
45522;SDS011;31254;51.680;5.394;2022-07-31T13:26:45;7.05;;;4.28;;
45522;SDS011;31254;51.680;5.394;2022-07-31T13:29:13;5.15;;;4.15;;
45522;SDS011;31254;51.680;5.394;2022-07-31T13:31:40;6.28;;;4.30;;
45522;SDS011;31254;51.680;5.394;2022-07-31T13:34:07;8.18;;;4.38;;
45522;SDS011;31254;51.680;5.394;2022-07-31T13:36:34;7.38;;;4.22;;
45522;SDS011;31254;51.680;5.394;2022-07-31T13:39:05;7.07;;;4.13;;
45522;SDS011;31254;51.680;5.394;2022-07-31T13:41:32;6.18;;;3.60;;
45522;SDS011;31254;51.680;5.394;2022-07-31T13:44:01;6.47;;;3.47;;
45522;SDS011;31254;51.680;5.394;2022-07-31T13:46:30;8.50;;;3.30;;
45522;SDS011;31254;51.680;5.394;2022-07-31T13:48:57;13.70;;;4.93;;
45522;SDS011;31254;51.680;5.394;2022-07-31T13:51:27;5.78;;;3.58;;
45522;SDS011;31254;51.680;5.394;2022-07-31T13:53:54;5.93;;;3.28;;
45522;SDS011;31254;51.680;5.394;2022-07-31T13:56:21;5.75;;;2.88;;
45522;SDS011;31254;51.680;5.394;2022-07-31T13:59:07;8.00;;;2.80;;
45522;SDS011;31254;51.680;5.394;2022-07-31T14:01:36;6.03;;;2.90;;
45522;SDS011;31254;51.680;5.394;2022-07-31T14:04:23;5.15;;;2.90;;
45522;SDS011;31254;51.680;5.394;2022-07-31T14:06:49;10.02;;;2.80;;
45522;SDS011;31254;51.680;5.394;2022-07-31T14:09:17;4.60;;;2.78;;
45522;SDS011;31254;51.680;5.394;2022-07-31T14:11:44;6.45;;;2.67;;
45522;SDS011;31254;51.680;5.394;2022-07-31T14:14:13;4.95;;;2.40;;
45522;SDS011;31254;51.680;5.394;2022-07-31T14:16:47;5.95;;;2.58;;
45522;SDS011;31254;51.680;5.394;2022-07-31T14:19:14;6.47;;;2.67;;
45522;SDS011;31254;51.680;5.394;2022-07-31T14:21:41;4.78;;;2.75;;
45522;SDS011;31254;51.680;5.394;2022-07-31T14:24:22;6.53;;;2.85;;
45522;SDS011;31254;51.680;5.394;2022-07-31T14:26:50;6.13;;;2.55;;
45522;SDS011;31254;51.680;5.394;2022-07-31T14:29:16;6.43;;;2.40;;
45522;SDS011;31254;51.680;5.394;2022-07-31T14:31:45;3.97;;;2.53;;
45522;SDS011;31254;51.680;5.394;2022-07-31T14:34:12;5.05;;;3.30;;
45522;SDS011;31254;51.680;5.394;2022-07-31T14:36:41;6.07;;;3.25;;
45522;SDS011;31254;51.680;5.394;2022-07-31T14:39:07;6.82;;;3.97;;
45522;SDS011;31254;51.680;5.394;2022-07-31T14:41:34;8.77;;;4.18;;
45522;SDS011;31254;51.680;5.394;2022-07-31T14:44:00;7.68;;;4.68;;
45522;SDS011;31254;51.680;5.394;2022-07-31T14:46:29;8.18;;;5.60;;
45522;SDS011;31254;51.680;5.394;2022-07-31T14:48:56;8.05;;;6.07;;
45522;SDS011;31254;51.680;5.394;2022-07-31T14:51:23;10.80;;;6.40;;
45522;SDS011;31254;51.680;5.394;2022-07-31T14:53:50;10.98;;;6.70;;
45522;SDS011;31254;51.680;5.394;2022-07-31T14:56:17;13.63;;;7.32;;
45522;SDS011;31254;51.680;5.394;2022-07-31T14:59:04;10.55;;;5.70;;
45522;SDS011;31254;51.680;5.394;2022-07-31T15:01:31;7.97;;;5.68;;
45522;SDS011;31254;51.680;5.394;2022-07-31T15:03:57;7.18;;;4.70;;
45522;SDS011;31254;51.680;5.394;2022-07-31T15:06:29;8.25;;;4.88;;
45522;SDS011;31254;51.680;5.394;2022-07-31T15:09:16;5.97;;;4.20;;
45522;SDS011;31254;51.680;5.394;2022-07-31T15:11:45;4.63;;;3.53;;
45522;SDS011;31254;51.680;5.394;2022-07-31T15:14:25;5.65;;;3.72;;